createdAt,value
2016-11-18T00:00:15.799Z,0
2016-11-18T00:01:16.276Z,0
2016-11-18T00:02:16.798Z,0
2016-11-18T00:03:17.313Z,0
2016-11-18T00:04:17.980Z,0
2016-11-18T00:05:18.491Z,0
2016-11-18T00:06:19.007Z,0
2016-11-18T00:07:19.519Z,0
2016-11-18T00:08:19.908Z,0
2016-11-18T00:09:20.424Z,0
2016-11-18T00:10:20.941Z,0
2016-11-18T00:11:21.430Z,0
2016-11-18T00:12:21.942Z,0
2016-11-18T00:13:22.459Z,0
2016-11-18T00:14:22.976Z,0
2016-11-18T00:15:23.639Z,0
2016-11-18T00:16:24.006Z,0
2016-11-18T00:17:24.665Z,0
2016-11-18T00:18:25.032Z,0
2016-11-18T00:19:25.546Z,0
2016-11-18T00:20:26.084Z,0
2016-11-18T00:21:26.569Z,0
2016-11-18T00:22:27.088Z,0
2016-11-18T00:23:27.748Z,0
2016-11-18T00:24:28.143Z,0
2016-11-18T00:25:28.633Z,0
2016-11-18T00:26:29.168Z,0
2016-11-18T00:27:29.669Z,0
2016-11-18T00:28:30.206Z,0
2016-11-18T00:29:30.724Z,0
2016-11-18T00:30:31.241Z,0
2016-11-18T00:31:31.879Z,0
2016-11-18T00:32:32.247Z,0
2016-11-18T00:33:32.772Z,0
2016-11-18T00:34:33.293Z,0
2016-11-18T00:35:33.808Z,0
2016-11-18T00:36:34.325Z,0
2016-11-18T00:37:34.845Z,0
2016-11-18T00:38:35.362Z,0
2016-11-18T00:39:35.878Z,0
2016-11-18T00:40:36.539Z,0
2016-11-18T00:41:36.904Z,0
2016-11-18T00:42:37.419Z,0
2016-11-18T00:43:38.083Z,0
2016-11-18T00:44:38.473Z,0
2016-11-18T00:45:38.962Z,0
2016-11-18T00:46:39.490Z,0
2016-11-18T00:47:40.144Z,0
2016-11-18T00:48:40.500Z,0
2016-11-18T00:49:41.019Z,0
2016-11-18T00:50:41.559Z,0
2016-11-18T00:51:42.075Z,0
2016-11-18T00:52:42.556Z,0
2016-11-18T00:53:43.217Z,0
2016-11-18T00:54:43.579Z,0
2016-11-18T00:55:44.123Z,0
2016-11-18T00:56:44.634Z,0
2016-11-18T00:57:45.155Z,0
2016-11-18T00:58:45.640Z,0
2016-11-18T00:59:46.305Z,0
2016-11-18T01:00:46.669Z,0
2016-11-18T01:01:47.190Z,0
2016-11-18T01:02:47.700Z,0
2016-11-18T01:03:48.208Z,0
2016-11-18T01:04:48.723Z,0
2016-11-18T01:05:49.238Z,0
2016-11-18T01:06:49.902Z,0
2016-11-18T01:07:50.413Z,0
2016-11-18T01:08:50.780Z,0
2016-11-18T01:09:51.444Z,0
2016-11-18T01:10:51.809Z,0
2016-11-18T01:11:52.478Z,0
2016-11-18T01:12:52.880Z,0
2016-11-18T01:13:53.371Z,0
2016-11-18T01:14:53.886Z,0
2016-11-18T01:15:54.404Z,0
2016-11-18T01:16:54.939Z,0
2016-11-18T01:17:55.581Z,0
2016-11-18T01:18:55.947Z,0
2016-11-18T01:19:56.462Z,0
2016-11-18T01:20:56.972Z,0
2016-11-18T01:21:57.637Z,0
2016-11-18T01:22:58.034Z,0
2016-11-18T01:23:58.522Z,0
2016-11-18T01:24:59.035Z,0
2016-11-18T01:25:59.697Z,0
2016-11-18T01:27:00.066Z,0
2016-11-18T01:28:00.728Z,0
2016-11-18T01:29:01.127Z,0
2016-11-18T01:30:01.615Z,0
2016-11-18T01:31:02.130Z,0
2016-11-18T01:32:02.795Z,0
2016-11-18T01:33:03.199Z,0
2016-11-18T01:34:03.824Z,0
2016-11-18T01:35:04.192Z,0
2016-11-18T01:36:04.714Z,0
2016-11-18T01:37:05.258Z,0
2016-11-18T01:38:05.736Z,0
2016-11-18T01:39:06.257Z,0
2016-11-18T01:40:06.915Z,0
2016-11-18T01:41:07.309Z,0
2016-11-18T01:42:07.946Z,0
2016-11-18T01:43:08.316Z,0
2016-11-18T01:44:08.828Z,0
2016-11-18T01:45:09.363Z,0
2016-11-18T01:46:09.857Z,0
2016-11-18T01:47:10.371Z,0
2016-11-18T01:48:11.039Z,0
2016-11-18T01:49:11.426Z,0
2016-11-18T01:50:12.073Z,0
2016-11-18T01:51:12.438Z,0
2016-11-18T01:52:13.103Z,0
2016-11-18T01:53:13.515Z,0
2016-11-18T01:54:14.028Z,0
2016-11-18T01:55:14.545Z,0
2016-11-18T01:56:15.028Z,0
2016-11-18T01:57:15.538Z,0
2016-11-18T01:58:16.057Z,0
2016-11-18T01:59:16.595Z,0
2016-11-18T02:00:17.088Z,0
2016-11-18T02:01:17.745Z,0
2016-11-18T02:02:18.254Z,0
2016-11-18T02:03:18.617Z,0
2016-11-18T02:04:19.135Z,0
2016-11-18T02:05:19.646Z,0
2016-11-18T02:06:20.165Z,0
2016-11-18T02:07:20.715Z,0
2016-11-18T02:08:21.369Z,0
2016-11-18T02:09:21.727Z,0
2016-11-18T02:10:22.229Z,0
2016-11-18T02:11:22.745Z,0
2016-11-18T02:12:23.262Z,0
2016-11-18T02:13:23.773Z,0
2016-11-18T02:14:24.294Z,0
2016-11-18T02:15:24.958Z,0
2016-11-18T02:16:25.327Z,0
2016-11-18T02:17:25.838Z,0
2016-11-18T02:18:26.505Z,0
2016-11-18T02:19:26.899Z,0
2016-11-18T02:20:27.534Z,0
2016-11-18T02:21:27.929Z,0
2016-11-18T02:22:28.422Z,0
2016-11-18T02:23:28.937Z,0
2016-11-18T02:24:29.599Z,0
2016-11-18T02:25:30.120Z,0
2016-11-18T02:26:30.487Z,0
2016-11-18T02:27:31.007Z,0
2016-11-18T02:28:31.515Z,0
2016-11-18T02:29:32.034Z,0
2016-11-18T02:30:32.548Z,0
2016-11-18T02:31:33.067Z,0
2016-11-18T02:32:33.592Z,0
2016-11-18T02:33:34.124Z,0
2016-11-18T02:34:34.623Z,0
2016-11-18T02:35:35.138Z,0
2016-11-18T02:36:35.803Z,0
2016-11-18T02:37:36.201Z,0
2016-11-18T02:38:36.693Z,0
2016-11-18T02:39:37.237Z,0
2016-11-18T02:40:37.872Z,0
2016-11-18T02:41:38.249Z,0
2016-11-18T02:42:38.755Z,0
2016-11-18T02:43:39.297Z,0
2016-11-18T02:44:39.784Z,0
2016-11-18T02:45:40.295Z,0
2016-11-18T02:46:40.812Z,0
2016-11-18T02:47:41.353Z,0
2016-11-18T02:48:41.846Z,0
2016-11-18T02:49:42.518Z,0
2016-11-18T02:50:42.874Z,0
2016-11-18T02:51:43.389Z,0
2016-11-18T02:52:43.904Z,0
2016-11-18T02:53:44.436Z,0
2016-11-18T02:54:44.929Z,0
2016-11-18T02:55:45.471Z,0
2016-11-18T02:56:45.984Z,0
2016-11-18T02:57:46.498Z,0
2016-11-18T02:58:46.983Z,0
2016-11-18T02:59:47.495Z,0
2016-11-18T03:00:48.039Z,0
2016-11-18T03:01:48.525Z,0
2016-11-18T03:02:49.040Z,0
2016-11-18T03:03:49.585Z,0
2016-11-18T03:04:50.219Z,0
2016-11-18T03:05:50.587Z,0
2016-11-18T03:06:51.119Z,0
2016-11-18T03:07:51.616Z,0
2016-11-18T03:08:52.281Z,0
2016-11-18T03:09:52.654Z,0
2016-11-18T03:10:53.200Z,0
2016-11-18T03:11:53.721Z,0
2016-11-18T03:12:54.346Z,0
2016-11-18T03:13:54.710Z,0
2016-11-18T03:14:55.226Z,0
2016-11-18T03:15:55.743Z,0
2016-11-18T03:16:56.250Z,0
2016-11-18T03:17:56.789Z,0
2016-11-18T03:18:57.428Z,0
2016-11-18T03:19:57.947Z,0
2016-11-18T03:20:58.315Z,0
2016-11-18T03:21:58.852Z,0
2016-11-18T03:22:59.372Z,0
2016-11-18T03:23:59.883Z,0
2016-11-18T03:25:00.398Z,0
2016-11-18T03:26:00.884Z,0
2016-11-18T03:27:01.548Z,0
2016-11-18T03:28:01.934Z,0
2016-11-18T03:29:02.569Z,0
2016-11-18T03:30:03.091Z,0
2016-11-18T03:31:03.593Z,0
2016-11-18T03:32:03.989Z,0
2016-11-18T03:33:04.482Z,0
2016-11-18T03:34:05.008Z,0
2016-11-18T03:35:05.533Z,0
2016-11-18T03:36:06.022Z,0
2016-11-18T03:37:06.535Z,0
2016-11-18T03:38:07.197Z,0
2016-11-18T03:39:07.561Z,0
2016-11-18T03:40:08.103Z,0
2016-11-18T03:41:08.737Z,0
2016-11-18T03:42:09.108Z,0
2016-11-18T03:43:09.771Z,0
2016-11-18T03:44:10.139Z,0
2016-11-18T03:45:10.658Z,0
2016-11-18T03:46:11.168Z,0
2016-11-18T03:47:11.690Z,0
2016-11-18T03:48:12.236Z,0
2016-11-18T03:49:12.731Z,0
2016-11-18T03:50:13.392Z,0
2016-11-18T03:51:13.787Z,0
2016-11-18T03:52:14.270Z,0
2016-11-18T03:53:14.786Z,0
2016-11-18T03:54:15.323Z,0
2016-11-18T03:55:15.961Z,0
2016-11-18T03:56:16.325Z,0
2016-11-18T03:57:16.985Z,0
2016-11-18T03:58:17.371Z,0
2016-11-18T03:59:17.864Z,0
2016-11-18T04:00:18.413Z,0
2016-11-18T04:01:18.923Z,0
2016-11-18T04:02:19.429Z,0
2016-11-18T04:03:19.919Z,0
2016-11-18T04:04:20.430Z,0
2016-11-18T04:05:21.096Z,0
2016-11-18T04:06:21.496Z,0
2016-11-18T04:07:21.981Z,0
2016-11-18T04:08:22.646Z,0
2016-11-18T04:09:23.012Z,0
2016-11-18T04:10:23.549Z,0
2016-11-18T04:11:24.193Z,0
2016-11-18T04:12:24.702Z,0
2016-11-18T04:13:25.210Z,0
2016-11-18T04:14:25.581Z,0
2016-11-18T04:15:26.092Z,0
2016-11-18T04:16:26.604Z,0
2016-11-18T04:17:27.117Z,0
2016-11-18T04:18:27.624Z,0
2016-11-18T04:19:28.285Z,0
2016-11-18T04:20:28.666Z,0
2016-11-18T04:21:29.312Z,0
2016-11-18T04:22:29.714Z,0
2016-11-18T04:23:30.188Z,0
2016-11-18T04:24:30.852Z,0
2016-11-18T04:25:31.257Z,0
2016-11-18T04:26:31.741Z,0
2016-11-18T04:27:32.401Z,0
2016-11-18T04:28:32.800Z,0
2016-11-18T04:29:33.441Z,0
2016-11-18T04:30:33.843Z,0
2016-11-18T04:31:34.332Z,0
2016-11-18T04:32:34.845Z,0
2016-11-18T04:33:35.507Z,0
2016-11-18T04:34:35.899Z,0
2016-11-18T04:35:36.414Z,0
2016-11-18T04:36:36.901Z,0
2016-11-18T04:37:37.565Z,0
2016-11-18T04:38:37.931Z,0
2016-11-18T04:39:38.444Z,0
2016-11-18T04:40:39.108Z,0
2016-11-18T04:41:39.472Z,0
2016-11-18T04:42:39.982Z,0
2016-11-18T04:43:40.498Z,0
2016-11-18T04:44:41.164Z,0
2016-11-18T04:45:41.677Z,0
2016-11-18T04:46:42.066Z,0
2016-11-18T04:47:42.559Z,0
2016-11-18T04:48:43.101Z,0
2016-11-18T04:49:43.726Z,0
2016-11-18T04:50:44.129Z,0
2016-11-18T04:51:44.798Z,0
2016-11-18T04:52:45.123Z,0
2016-11-18T04:53:45.637Z,0
2016-11-18T04:54:46.301Z,0
2016-11-18T04:55:46.665Z,0
2016-11-18T04:56:47.209Z,0
2016-11-18T04:57:47.697Z,0
2016-11-18T04:58:48.361Z,0
2016-11-18T04:59:48.722Z,0
2016-11-18T05:00:49.384Z,0
2016-11-18T05:01:49.897Z,0
2016-11-18T05:02:50.293Z,0
2016-11-18T05:03:50.916Z,0
2016-11-18T05:04:51.283Z,0
2016-11-18T05:05:51.826Z,0
2016-11-18T05:06:52.336Z,0
2016-11-18T05:07:52.986Z,0
2016-11-18T05:08:53.386Z,0
2016-11-18T05:09:54.024Z,0
2016-11-18T05:10:54.392Z,0
2016-11-18T05:11:54.913Z,0
2016-11-18T05:12:55.460Z,0
2016-11-18T05:13:56.095Z,0
2016-11-18T05:14:56.467Z,0
2016-11-18T05:15:57.135Z,0
2016-11-18T05:16:57.502Z,0
2016-11-18T05:17:58.168Z,0
2016-11-18T05:18:58.538Z,0
2016-11-18T05:19:59.055Z,0
2016-11-18T05:20:59.570Z,0
2016-11-18T05:22:00.089Z,0
2016-11-18T05:23:00.640Z,0
2016-11-18T05:24:01.124Z,0
2016-11-18T05:25:01.668Z,0
2016-11-18T05:26:02.158Z,0
2016-11-18T05:27:02.671Z,0
2016-11-18T05:28:03.217Z,0
2016-11-18T05:29:03.736Z,0
2016-11-18T05:30:04.226Z,0
2016-11-18T05:31:04.742Z,0
2016-11-18T05:32:05.404Z,0
2016-11-18T05:33:05.949Z,0
2016-11-18T05:34:06.295Z,0
2016-11-18T05:35:06.809Z,0
2016-11-18T05:36:07.327Z,0
2016-11-18T05:37:07.871Z,0
2016-11-18T05:38:08.511Z,0
2016-11-18T05:39:08.882Z,0
2016-11-18T05:40:09.551Z,0
2016-11-18T05:41:10.070Z,0
2016-11-18T05:42:10.436Z,0
2016-11-18T05:43:11.103Z,0
2016-11-18T05:44:11.474Z,0
2016-11-18T05:45:12.146Z,0
2016-11-18T05:46:12.660Z,0
2016-11-18T05:47:13.180Z,0
2016-11-18T05:48:13.696Z,0
2016-11-18T05:49:14.098Z,0
2016-11-18T05:50:14.581Z,0
2016-11-18T05:51:15.124Z,0
2016-11-18T05:52:15.610Z,0
2016-11-18T05:53:16.129Z,0
2016-11-18T05:54:16.649Z,0
2016-11-18T05:55:17.161Z,0
2016-11-18T05:56:17.679Z,0
2016-11-18T05:57:18.347Z,0
2016-11-18T05:58:18.863Z,0
2016-11-18T05:59:19.233Z,0
2016-11-18T06:00:19.747Z,0
2016-11-18T06:01:20.268Z,0
2016-11-18T06:02:20.933Z,0
2016-11-18T06:03:21.326Z,0
2016-11-18T06:04:21.969Z,0
2016-11-18T06:05:22.340Z,0
2016-11-18T06:06:22.854Z,0
2016-11-18T06:07:23.398Z,0
2016-11-18T06:08:23.914Z,0
2016-11-18T06:09:24.436Z,0
2016-11-18T06:10:24.947Z,0
2016-11-18T06:11:25.589Z,0
2016-11-18T06:12:26.103Z,0
2016-11-18T06:13:26.629Z,0
2016-11-18T06:14:27.135Z,0
2016-11-18T06:15:27.518Z,0
2016-11-18T06:16:28.166Z,0
2016-11-18T06:17:28.537Z,0
2016-11-18T06:18:29.060Z,0
2016-11-18T06:19:29.569Z,0
2016-11-18T06:20:30.085Z,0
2016-11-18T06:21:30.607Z,0
2016-11-18T06:22:31.124Z,0
2016-11-18T06:23:31.683Z,0
2016-11-18T06:24:32.195Z,0
2016-11-18T06:25:32.688Z,0
2016-11-18T06:26:33.212Z,0
2016-11-18T06:27:33.753Z,0
2016-11-18T06:28:34.248Z,0
2016-11-18T06:29:34.763Z,0
2016-11-18T06:30:35.428Z,0
2016-11-18T06:31:35.827Z,0
2016-11-18T06:32:36.359Z,0
2016-11-18T06:33:36.849Z,0
2016-11-18T06:34:37.401Z,0
2016-11-18T06:35:37.891Z,0
2016-11-18T06:36:38.563Z,0
2016-11-18T06:37:38.938Z,0
2016-11-18T06:38:39.461Z,0
2016-11-18T06:39:40.007Z,0
2016-11-18T06:40:40.509Z,0
2016-11-18T06:41:41.056Z,0
2016-11-18T06:42:41.539Z,0
2016-11-18T06:43:42.051Z,0
2016-11-18T06:44:42.567Z,0
2016-11-18T06:45:43.077Z,0
2016-11-18T06:46:43.736Z,0
2016-11-18T06:47:44.108Z,0
2016-11-18T06:48:44.620Z,0
2016-11-18T06:49:45.160Z,0
2016-11-18T06:50:45.649Z,0
2016-11-18T06:51:46.187Z,0
2016-11-18T06:52:46.702Z,0
2016-11-18T06:53:47.191Z,0
2016-11-18T06:54:47.712Z,0
2016-11-18T06:55:48.216Z,0
2016-11-18T06:56:48.881Z,0
2016-11-18T06:57:49.266Z,0
2016-11-18T06:58:49.900Z,0
2016-11-18T06:59:50.301Z,0
2016-11-18T07:00:50.783Z,0
2016-11-18T07:01:51.297Z,0
2016-11-18T07:02:51.814Z,0
2016-11-18T07:03:52.329Z,0
2016-11-18T07:04:52.851Z,0
2016-11-18T07:05:53.368Z,0
2016-11-18T07:06:54.041Z,0
2016-11-18T07:07:54.448Z,0
2016-11-18T07:08:54.940Z,0
2016-11-18T07:09:55.609Z,0
2016-11-18T07:10:56.130Z,0
2016-11-18T07:11:56.499Z,0
2016-11-18T07:12:57.024Z,0
2016-11-18T07:13:57.568Z,0
2016-11-18T07:14:58.089Z,0
2016-11-18T07:15:58.582Z,0
2016-11-18T07:16:59.104Z,0
2016-11-18T07:17:59.626Z,0
2016-11-18T07:19:00.176Z,0
2016-11-18T07:20:00.670Z,0
2016-11-18T07:21:01.195Z,0
2016-11-18T07:22:01.707Z,0
2016-11-18T07:23:02.366Z,0
2016-11-18T07:24:02.759Z,0
2016-11-18T07:25:03.246Z,0
2016-11-18T07:26:03.802Z,0
2016-11-18T07:27:04.425Z,0
2016-11-18T07:28:04.814Z,0
2016-11-18T07:29:05.459Z,0
2016-11-18T07:30:05.826Z,0
2016-11-18T07:31:06.492Z,0
2016-11-18T07:32:06.882Z,0
2016-11-18T07:33:07.404Z,0
2016-11-18T07:34:07.888Z,0
2016-11-18T07:35:08.551Z,0
2016-11-18T07:36:09.217Z,0
2016-11-18T07:37:09.462Z,0
2016-11-18T07:38:10.097Z,0
2016-11-18T07:39:10.607Z,0
2016-11-18T07:40:10.999Z,0
2016-11-18T07:41:11.489Z,0
2016-11-18T07:42:12.012Z,0
2016-11-18T07:43:12.528Z,0
2016-11-18T07:44:13.069Z,0
2016-11-18T07:45:13.554Z,0
2016-11-18T07:46:14.070Z,0
2016-11-18T07:47:14.735Z,0
2016-11-18T07:48:15.099Z,0
2016-11-18T07:49:15.617Z,0
2016-11-18T07:50:16.132Z,0
2016-11-18T07:51:16.792Z,0
2016-11-18T07:52:17.182Z,0
2016-11-18T07:53:17.672Z,0
2016-11-18T07:54:18.210Z,0
2016-11-18T07:55:18.728Z,0
2016-11-18T07:56:19.212Z,0
2016-11-18T07:57:19.871Z,0
2016-11-18T07:58:20.271Z,0
2016-11-18T07:59:20.758Z,29
2016-11-18T08:00:21.301Z,40
2016-11-18T08:01:21.786Z,47
2016-11-18T08:02:22.327Z,52
2016-11-18T08:03:22.958Z,53
2016-11-18T08:04:23.362Z,56
2016-11-18T08:05:23.988Z,55
2016-11-18T08:06:24.349Z,53
2016-11-18T08:07:25.012Z,54
2016-11-18T08:08:25.413Z,58
2016-11-18T08:09:25.892Z,58
2016-11-18T08:10:26.445Z,56
2016-11-18T08:11:26.919Z,48
2016-11-18T08:12:27.457Z,42
2016-11-18T08:13:27.950Z,37
2016-11-18T08:14:28.481Z,34
2016-11-18T08:15:28.982Z,29
2016-11-18T08:16:29.493Z,28
2016-11-18T08:17:30.198Z,28
2016-11-18T08:18:30.671Z,28
2016-11-18T08:19:31.189Z,24
2016-11-18T08:20:31.705Z,19
2016-11-18T08:21:32.224Z,14
2016-11-18T08:22:32.623Z,10
2016-11-18T08:23:33.136Z,6
2016-11-18T08:24:33.661Z,4
2016-11-18T08:25:34.286Z,0
2016-11-18T08:26:34.687Z,0
2016-11-18T08:27:35.172Z,0
2016-11-18T08:28:35.690Z,0
2016-11-18T08:29:36.200Z,0
2016-11-18T08:30:36.742Z,0
2016-11-18T08:31:37.378Z,0
2016-11-18T08:32:37.747Z,0
2016-11-18T08:33:38.257Z,0
2016-11-18T08:34:38.919Z,0
2016-11-18T08:35:39.287Z,21
2016-11-18T08:36:39.947Z,22
2016-11-18T08:37:40.314Z,25
2016-11-18T08:38:40.826Z,28
2016-11-18T08:39:41.344Z,29
2016-11-18T08:40:41.882Z,31
2016-11-18T08:41:42.371Z,29
2016-11-18T08:42:42.907Z,27
2016-11-18T08:43:43.399Z,28
2016-11-18T08:44:43.907Z,32
2016-11-18T08:45:44.425Z,35
2016-11-18T08:46:44.969Z,37
2016-11-18T08:47:45.456Z,37
2016-11-18T08:48:45.970Z,37
2016-11-18T08:49:46.479Z,38
2016-11-18T08:50:47.028Z,40
2016-11-18T08:51:47.516Z,42
2016-11-18T08:52:48.033Z,42
2016-11-18T08:53:48.692Z,42
2016-11-18T08:54:49.056Z,46
2016-11-18T08:55:49.722Z,53
2016-11-18T08:56:50.125Z,55
2016-11-18T08:57:50.629Z,52
2016-11-18T08:58:51.302Z,56
2016-11-18T08:59:51.658Z,63
2016-11-18T09:00:52.194Z,66
2016-11-18T09:01:52.676Z,70
2016-11-18T09:02:53.190Z,84
2016-11-18T09:03:53.706Z,115
2016-11-18T09:04:54.215Z,131
2016-11-18T09:05:54.731Z,138
2016-11-18T09:06:55.243Z,144
2016-11-18T09:07:55.790Z,144
2016-11-18T09:08:56.305Z,147
2016-11-18T09:09:56.794Z,151
2016-11-18T09:10:57.310Z,151
2016-11-18T09:11:57.827Z,154
2016-11-18T09:12:58.496Z,150
2016-11-18T09:13:58.856Z,128
2016-11-18T09:14:59.368Z,111
2016-11-18T09:15:59.888Z,91
2016-11-18T09:17:00.396Z,90
2016-11-18T09:18:00.909Z,92
2016-11-18T09:19:01.426Z,93
2016-11-18T09:20:01.938Z,98
2016-11-18T09:21:02.451Z,100
2016-11-18T09:22:03.119Z,99
2016-11-18T09:23:03.519Z,99
2016-11-18T09:24:04.153Z,103
2016-11-18T09:25:04.518Z,112
2016-11-18T09:26:05.030Z,116
2016-11-18T09:27:05.544Z,116
2016-11-18T09:28:06.084Z,113
2016-11-18T09:29:06.603Z,113
2016-11-18T09:30:07.107Z,110
2016-11-18T09:31:07.619Z,102
2016-11-18T09:32:08.133Z,93
2016-11-18T09:33:08.650Z,97
2016-11-18T09:34:09.142Z,116
2016-11-18T09:35:09.801Z,121
2016-11-18T09:36:10.171Z,121
2016-11-18T09:37:10.714Z,71
2016-11-18T09:38:11.204Z,121
2016-11-18T09:39:11.719Z,235
2016-11-18T09:40:12.389Z,171
2016-11-18T09:41:12.757Z,171
2016-11-18T09:42:13.305Z,176
2016-11-18T09:43:13.794Z,132
2016-11-18T09:44:14.448Z,104
2016-11-18T09:45:14.812Z,100
2016-11-18T09:46:15.474Z,109
2016-11-18T09:47:15.836Z,130
2016-11-18T09:48:16.356Z,271
2016-11-18T09:49:17.015Z,298
2016-11-18T09:50:17.410Z,404
2016-11-18T09:51:17.923Z,465
2016-11-18T09:52:18.557Z,407
2016-11-18T09:53:18.927Z,384
2016-11-18T09:54:19.586Z,375
2016-11-18T09:55:19.983Z,385
2016-11-18T09:56:20.477Z,281
2016-11-18T09:57:21.008Z,58
2016-11-18T09:58:21.497Z,61
2016-11-18T09:59:22.009Z,113
2016-11-18T10:00:22.673Z,278
2016-11-18T10:01:23.068Z,463
2016-11-18T10:02:23.559Z,462
2016-11-18T10:03:24.070Z,471
2016-11-18T10:04:24.591Z,290
2016-11-18T10:05:25.097Z,150
2016-11-18T10:06:25.641Z,265
2016-11-18T10:07:26.278Z,448
2016-11-18T10:08:26.644Z,468
2016-11-18T10:09:27.190Z,205
2016-11-18T10:10:27.671Z,161
2016-11-18T10:11:28.335Z,166
2016-11-18T10:12:28.700Z,157
2016-11-18T10:13:29.214Z,154
2016-11-18T10:14:29.756Z,152
2016-11-18T10:15:30.245Z,145
2016-11-18T10:16:30.792Z,143
2016-11-18T10:17:31.293Z,132
2016-11-18T10:18:31.817Z,119
2016-11-18T10:19:32.344Z,118
2016-11-18T10:20:32.876Z,123
2016-11-18T10:21:33.524Z,132
2016-11-18T10:22:33.870Z,121
2016-11-18T10:23:34.533Z,125
2016-11-18T10:24:34.902Z,122
2016-11-18T10:25:35.411Z,136
2016-11-18T10:26:35.925Z,146
2016-11-18T10:27:36.438Z,154
2016-11-18T10:28:36.954Z,154
2016-11-18T10:29:37.469Z,172
2016-11-18T10:30:38.124Z,197
2016-11-18T10:31:38.496Z,271
2016-11-18T10:32:39.153Z,266
2016-11-18T10:33:39.545Z,531
2016-11-18T10:34:40.036Z,472
2016-11-18T10:35:40.543Z,451
2016-11-18T10:36:41.061Z,430
2016-11-18T10:37:41.570Z,425
2016-11-18T10:38:42.088Z,413
2016-11-18T10:39:42.600Z,410
2016-11-18T10:40:43.264Z,409
2016-11-18T10:41:43.635Z,416
2016-11-18T10:42:44.157Z,422
2016-11-18T10:43:44.666Z,418
2016-11-18T10:44:45.186Z,371
2016-11-18T10:45:45.732Z,102
2016-11-18T10:46:46.211Z,438
2016-11-18T10:47:46.754Z,483
2016-11-18T10:48:47.385Z,402
2016-11-18T10:49:47.780Z,472
2016-11-18T10:50:48.291Z,320
2016-11-18T10:51:48.780Z,448
2016-11-18T10:52:49.442Z,404
2016-11-18T10:53:49.843Z,404
2016-11-18T10:54:50.474Z,343
2016-11-18T10:55:50.987Z,344
2016-11-18T10:56:51.365Z,211
2016-11-18T10:57:51.868Z,204
2016-11-18T10:58:52.392Z,207
2016-11-18T10:59:52.938Z,184
2016-11-18T11:00:53.430Z,162
2016-11-18T11:01:53.947Z,154
2016-11-18T11:02:54.762Z,143
2016-11-18T11:03:54.976Z,145
2016-11-18T11:04:55.642Z,165
2016-11-18T11:05:56.010Z,171
2016-11-18T11:06:56.676Z,162
2016-11-18T11:07:57.191Z,144
2016-11-18T11:08:57.702Z,130
2016-11-18T11:09:58.068Z,124
2016-11-18T11:10:58.732Z,123
2016-11-18T11:11:59.094Z,132
2016-11-18T11:12:59.757Z,165
2016-11-18T11:14:00.127Z,170
2016-11-18T11:15:00.787Z,214
2016-11-18T11:16:01.153Z,238
2016-11-18T11:17:01.699Z,251
2016-11-18T11:18:02.211Z,246
2016-11-18T11:19:02.697Z,236
2016-11-18T11:20:03.211Z,200
2016-11-18T11:21:03.872Z,163
2016-11-18T11:22:04.241Z,136
2016-11-18T11:23:04.901Z,129
2016-11-18T11:24:05.269Z,106
2016-11-18T11:25:05.808Z,89
2016-11-18T11:26:06.296Z,93
2016-11-18T11:27:06.814Z,109
2016-11-18T11:28:07.328Z,119
2016-11-18T11:29:07.845Z,164
2016-11-18T11:30:08.386Z,208
2016-11-18T11:31:09.027Z,200
2016-11-18T11:32:09.419Z,146
2016-11-18T11:33:10.056Z,118
2016-11-18T11:34:10.421Z,108
2016-11-18T11:35:10.939Z,109
2016-11-18T11:36:11.452Z,129
2016-11-18T11:37:11.995Z,166
2016-11-18T11:38:12.520Z,180
2016-11-18T11:39:13.152Z,204
2016-11-18T11:40:13.556Z,216
2016-11-18T11:41:14.183Z,235
2016-11-18T11:42:14.577Z,363
2016-11-18T11:43:15.207Z,267
2016-11-18T11:44:15.726Z,191
2016-11-18T11:45:16.119Z,139
2016-11-18T11:46:16.598Z,135
2016-11-18T11:47:17.165Z,137
2016-11-18T11:48:17.629Z,138
2016-11-18T11:49:18.292Z,148
2016-11-18T11:50:18.656Z,159
2016-11-18T11:51:19.320Z,163
2016-11-18T11:52:19.694Z,163
2016-11-18T11:53:20.200Z,149
2016-11-18T11:54:20.749Z,149
2016-11-18T11:55:21.376Z,146
2016-11-18T11:56:21.741Z,132
2016-11-18T11:57:22.256Z,119
2016-11-18T11:58:22.806Z,103
2016-11-18T11:59:23.431Z,86
2016-11-18T12:00:23.797Z,78
2016-11-18T12:01:24.470Z,71
2016-11-18T12:02:24.979Z,50
2016-11-18T12:03:25.487Z,26
2016-11-18T12:04:25.884Z,16
2016-11-18T12:05:26.367Z,17
2016-11-18T12:06:26.904Z,25
2016-11-18T12:07:27.400Z,41
2016-11-18T12:08:28.062Z,83
2016-11-18T12:09:28.576Z,114
2016-11-18T12:10:28.968Z,112
2016-11-18T12:11:29.457Z,105
2016-11-18T12:12:30.003Z,118
2016-11-18T12:13:30.638Z,129
2016-11-18T12:14:31.004Z,129
2016-11-18T12:15:31.528Z,122
2016-11-18T12:16:32.086Z,123
2016-11-18T12:17:32.595Z,129
2016-11-18T12:18:33.113Z,132
2016-11-18T12:19:33.748Z,136
2016-11-18T12:20:34.143Z,143
2016-11-18T12:21:34.650Z,132
2016-11-18T12:22:35.290Z,105
2016-11-18T12:23:35.803Z,97
2016-11-18T12:24:36.207Z,95
2016-11-18T12:25:36.846Z,78
2016-11-18T12:26:37.493Z,70
2016-11-18T12:27:37.714Z,76
2016-11-18T12:28:38.252Z,75
2016-11-18T12:29:38.886Z,50
2016-11-18T12:30:39.248Z,36
2016-11-18T12:31:39.765Z,29
2016-11-18T12:32:40.275Z,36
2016-11-18T12:33:40.794Z,42
2016-11-18T12:34:41.335Z,50
2016-11-18T12:35:41.971Z,65
2016-11-18T12:36:42.359Z,76
2016-11-18T12:37:42.854Z,70
2016-11-18T12:38:43.525Z,67
2016-11-18T12:39:44.037Z,72
2016-11-18T12:40:44.438Z,74
2016-11-18T12:41:44.915Z,68
2016-11-18T12:42:45.426Z,56
2016-11-18T12:43:46.091Z,41
2016-11-18T12:44:46.460Z,28
2016-11-18T12:45:47.121Z,18
2016-11-18T12:46:47.513Z,10
2016-11-18T12:47:48.145Z,7
2016-11-18T12:48:48.510Z,14
2016-11-18T12:49:49.025Z,31
2016-11-18T12:50:49.560Z,29
2016-11-18T12:51:50.194Z,33
2016-11-18T12:52:50.585Z,42
2016-11-18T12:53:51.072Z,58
2016-11-18T12:54:51.587Z,70
2016-11-18T12:55:52.109Z,61
2016-11-18T12:56:52.655Z,49
2016-11-18T12:57:53.147Z,45
2016-11-18T12:58:53.692Z,49
2016-11-18T12:59:54.183Z,56
2016-11-18T13:00:54.700Z,57
2016-11-18T13:01:55.246Z,60
2016-11-18T13:02:55.759Z,57
2016-11-18T13:03:56.397Z,62
2016-11-18T13:04:56.791Z,73
2016-11-18T13:05:57.281Z,70
2016-11-18T13:06:57.943Z,55
2016-11-18T13:07:58.334Z,55
2016-11-18T13:08:58.819Z,59
2016-11-18T13:09:59.333Z,53
2016-11-18T13:10:59.870Z,49
2016-11-18T13:12:00.389Z,49
2016-11-18T13:13:00.879Z,43
2016-11-18T13:14:01.402Z,32
2016-11-18T13:15:01.909Z,45
2016-11-18T13:16:02.424Z,41
2016-11-18T13:17:02.966Z,31
2016-11-18T13:18:03.456Z,42
2016-11-18T13:19:04.116Z,52
2016-11-18T13:20:04.631Z,47
2016-11-18T13:21:05.037Z,40
2016-11-18T13:22:05.515Z,39
2016-11-18T13:23:06.031Z,38
2016-11-18T13:24:06.548Z,41
2016-11-18T13:25:07.060Z,38
2016-11-18T13:26:07.725Z,56
2016-11-18T13:27:08.103Z,78
2016-11-18T13:28:08.669Z,67
2016-11-18T13:29:09.152Z,38
2016-11-18T13:30:09.789Z,22
2016-11-18T13:31:10.168Z,22
2016-11-18T13:32:10.811Z,40
2016-11-18T13:33:11.179Z,69
2016-11-18T13:34:11.843Z,85
2016-11-18T13:35:12.212Z,75
2016-11-18T13:36:12.732Z,62
2016-11-18T13:37:13.245Z,34
2016-11-18T13:38:13.769Z,21
2016-11-18T13:39:14.308Z,19
2016-11-18T13:40:14.821Z,22
2016-11-18T13:41:15.345Z,33
2016-11-18T13:42:15.824Z,53
2016-11-18T13:43:16.367Z,72
2016-11-18T13:44:16.857Z,76
2016-11-18T13:45:17.407Z,63
2016-11-18T13:46:17.896Z,62
2016-11-18T13:47:18.433Z,79
2016-11-18T13:48:19.063Z,85
2016-11-18T13:49:19.454Z,97
2016-11-18T13:50:19.943Z,104
2016-11-18T13:51:20.478Z,108
2016-11-18T13:52:21.110Z,111
2016-11-18T13:53:21.501Z,113
2016-11-18T13:54:21.994Z,112
2016-11-18T13:55:22.514Z,101
2016-11-18T13:56:23.047Z,89
2016-11-18T13:57:23.536Z,71
2016-11-18T13:58:24.078Z,62
2016-11-18T13:59:24.565Z,68
2016-11-18T14:00:25.226Z,80
2016-11-18T14:01:25.629Z,93
2016-11-18T14:02:26.262Z,97
2016-11-18T14:03:26.791Z,93
2016-11-18T14:04:27.167Z,93
2016-11-18T14:05:27.685Z,96
2016-11-18T14:06:28.170Z,90
2016-11-18T14:07:28.686Z,76
2016-11-18T14:08:29.234Z,64
2016-11-18T14:09:29.721Z,49
2016-11-18T14:10:30.244Z,37
2016-11-18T14:11:30.906Z,30
2016-11-18T14:12:31.417Z,29
2016-11-18T14:13:31.809Z,32
2016-11-18T14:14:32.304Z,35
2016-11-18T14:15:32.813Z,38
2016-11-18T14:16:33.475Z,46
2016-11-18T14:17:33.996Z,53
2016-11-18T14:18:34.363Z,55
2016-11-18T14:19:34.870Z,53
2016-11-18T14:20:35.387Z,52
2016-11-18T14:21:35.927Z,51
2016-11-18T14:22:36.563Z,49
2016-11-18T14:23:36.933Z,47
2016-11-18T14:24:37.448Z,46
2016-11-18T14:25:37.985Z,45
2016-11-18T14:26:38.475Z,45
2016-11-18T14:27:39.007Z,44
2016-11-18T14:28:39.503Z,35
2016-11-18T14:29:40.164Z,30
2016-11-18T14:30:40.676Z,29
2016-11-18T14:31:41.191Z,30
2016-11-18T14:32:41.562Z,33
2016-11-18T14:33:42.099Z,35